Airfield :
LOGIN :

Register | Disclaimer

   EN    FR    IT 

 










Legend :    VFR   Marginal VFR   IFR   Intensive IFR   Very Intensive IFR
Visi :
Ceiling :
>= 8 km
>= 3000ft
5 to 8 km
1000 to 3000 ft
1500m to 5 km
500 to 1000 ft
800 to 1500m
200 to 500 ft
< 800m
< 200 ft
Symbols :   Thunderstorms  Fog  Heavy snow  Heavy precipitations  Wind > 20 kt
SIGMETs :     Misc.  Thunderstorms  Icing  Turbulence  Mountain Waves  Volcanic Ashes







- Airport Elevation : 215 ft
- IATA code : ABZ
- Download approach charts


EGPD - Aberdeen / Dyce

CURRENT METAR :
  • 251120Z AUTO 31013KT 260V330 9999 SCT038 09/00 Q1031 NOSIG

EXPIRED METARs :
  • 251050Z AUTO 32016KT 9999 BKN034 09/01 Q1031 NOSIG
  • 251020Z AUTO 32017KT 9999 SCT033 09/01 Q1031
  • 250950Z AUTO 32016KT 9999 NCD 08/02 Q1030 NOSIG
  • 250920Z AUTO 32016KT 9999 SCT048 08/02 Q1030 NOSIG
  • 250850Z AUTO 32017KT 9999 BKN042 07/03 Q1030

TAF AMD TAF EGPD
Valid from the 25 at 08:00 until the 26 at 06:00 UTC


250827Z 2508/2606 31012KT 9999 SCT035
TEMPO 2508/2509 8000 SHRA
PROB30
TEMPO 2508/2512 32015G25KT
BECMG 2518/2521 25007KT
No reported NOTAMs for that airfield.



MET'MAP, your aeronautical weather chart ! - Copyright ORBIFLY December 2007 - Disclaimer

ORBIFLY MET'MAP TEAM :

Programming & Development : Alexandra Zaïnal
Concept & Development : Baudouin d'Aumeries
Co-Development & Prog : Marc-Olivier Méhu
Technical & hardware support : Manuel Goepfert

Contact : metmap@orbifly.com




SOURCES & CREDITS :

   NOAA